sensor_id;sensor_type;location;lat;lon;timestamp;P1;durP1;ratioP1;P2;durP2;ratioP2
85877;SDS011;76393;44.098;3.072;2024-03-02T00:00:07;6.47;;;3.17;;
85877;SDS011;76393;44.098;3.072;2024-03-02T00:02:44;7.22;;;2.50;;
85877;SDS011;76393;44.098;3.072;2024-03-02T00:05:10;8.25;;;3.38;;
85877;SDS011;76393;44.098;3.072;2024-03-02T00:07:43;7.88;;;2.50;;
85877;SDS011;76393;44.098;3.072;2024-03-02T00:10:10;8.60;;;2.90;;
85877;SDS011;76393;44.098;3.072;2024-03-02T00:12:40;7.25;;;2.65;;
85877;SDS011;76393;44.098;3.072;2024-03-02T00:15:13;7.50;;;2.28;;
85877;SDS011;76393;44.098;3.072;2024-03-02T00:17:59;6.68;;;2.05;;
85877;SDS011;76393;44.098;3.072;2024-03-02T00:20:24;8.93;;;2.55;;
85877;SDS011;76393;44.098;3.072;2024-03-02T00:25:33;8.60;;;3.30;;
85877;SDS011;76393;44.098;3.072;2024-03-02T00:28:05;12.85;;;4.15;;
85877;SDS011;76393;44.098;3.072;2024-03-02T00:32:58;9.95;;;4.25;;
85877;SDS011;76393;44.098;3.072;2024-03-02T00:35:24;11.65;;;5.20;;
85877;SDS011;76393;44.098;3.072;2024-03-02T00:37:49;12.52;;;5.50;;
85877;SDS011;76393;44.098;3.072;2024-03-02T00:40:16;12.65;;;5.03;;
85877;SDS011;76393;44.098;3.072;2024-03-02T00:42:42;10.13;;;4.30;;
85877;SDS011;76393;44.098;3.072;2024-03-02T00:45:08;9.10;;;3.70;;
85877;SDS011;76393;44.098;3.072;2024-03-02T00:47:37;9.07;;;4.00;;
85877;SDS011;76393;44.098;3.072;2024-03-02T00:50:04;11.88;;;3.97;;
85877;SDS011;76393;44.098;3.072;2024-03-02T00:52:30;8.20;;;4.00;;
85877;SDS011;76393;44.098;3.072;2024-03-02T00:54:58;9.35;;;3.60;;
85877;SDS011;76393;44.098;3.072;2024-03-02T00:57:24;9.10;;;3.40;;
85877;SDS011;76393;44.098;3.072;2024-03-02T00:59:51;7.60;;;3.03;;
85877;SDS011;76393;44.098;3.072;2024-03-02T01:02:17;7.00;;;2.78;;
85877;SDS011;76393;44.098;3.072;2024-03-02T01:04:42;8.98;;;3.10;;
85877;SDS011;76393;44.098;3.072;2024-03-02T01:07:07;7.28;;;3.05;;
85877;SDS011;76393;44.098;3.072;2024-03-02T01:09:33;8.32;;;3.03;;
85877;SDS011;76393;44.098;3.072;2024-03-02T01:11:58;5.25;;;2.17;;
85877;SDS011;76393;44.098;3.072;2024-03-02T01:14:24;7.80;;;3.30;;
85877;SDS011;76393;44.098;3.072;2024-03-02T01:16:49;9.95;;;3.38;;
85877;SDS011;76393;44.098;3.072;2024-03-02T01:19:15;12.05;;;3.55;;
85877;SDS011;76393;44.098;3.072;2024-03-02T01:21:40;7.18;;;2.58;;
85877;SDS011;76393;44.098;3.072;2024-03-02T01:24:06;7.75;;;2.50;;
85877;SDS011;76393;44.098;3.072;2024-03-02T01:26:31;5.85;;;2.50;;
85877;SDS011;76393;44.098;3.072;2024-03-02T01:28:57;7.65;;;2.85;;
85877;SDS011;76393;44.098;3.072;2024-03-02T01:31:22;7.78;;;2.40;;
85877;SDS011;76393;44.098;3.072;2024-03-02T01:33:48;8.85;;;2.90;;
85877;SDS011;76393;44.098;3.072;2024-03-02T01:36:14;6.72;;;2.88;;
85877;SDS011;76393;44.098;3.072;2024-03-02T01:38:39;8.07;;;2.92;;
85877;SDS011;76393;44.098;3.072;2024-03-02T01:41:05;6.18;;;2.15;;
85877;SDS011;76393;44.098;3.072;2024-03-02T01:43:30;6.88;;;2.15;;
85877;SDS011;76393;44.098;3.072;2024-03-02T01:45:56;6.25;;;2.28;;
85877;SDS011;76393;44.098;3.072;2024-03-02T01:48:21;5.50;;;2.38;;
85877;SDS011;76393;44.098;3.072;2024-03-02T01:50:47;6.03;;;2.00;;
85877;SDS011;76393;44.098;3.072;2024-03-02T01:53:12;8.98;;;2.20;;
85877;SDS011;76393;44.098;3.072;2024-03-02T01:55:38;7.53;;;2.38;;
85877;SDS011;76393;44.098;3.072;2024-03-02T01:58:03;7.90;;;2.22;;
85877;SDS011;76393;44.098;3.072;2024-03-02T02:00:29;6.70;;;2.05;;
85877;SDS011;76393;44.098;3.072;2024-03-02T02:02:55;7.75;;;2.80;;
85877;SDS011;76393;44.098;3.072;2024-03-02T02:05:20;10.85;;;2.80;;
85877;SDS011;76393;44.098;3.072;2024-03-02T02:07:46;6.70;;;2.40;;
85877;SDS011;76393;44.098;3.072;2024-03-02T02:10:12;5.25;;;1.92;;
85877;SDS011;76393;44.098;3.072;2024-03-02T02:12:37;6.72;;;2.45;;
85877;SDS011;76393;44.098;3.072;2024-03-02T02:15:24;6.50;;;2.03;;
85877;SDS011;76393;44.098;3.072;2024-03-02T02:17:53;6.63;;;2.80;;
85877;SDS011;76393;44.098;3.072;2024-03-02T02:20:19;7.57;;;2.15;;
85877;SDS011;76393;44.098;3.072;2024-03-02T02:22:58;5.63;;;2.30;;
85877;SDS011;76393;44.098;3.072;2024-03-02T02:25:27;7.90;;;2.60;;
85877;SDS011;76393;44.098;3.072;2024-03-02T02:27:53;4.53;;;2.25;;
85877;SDS011;76393;44.098;3.072;2024-03-02T02:30:19;7.50;;;2.58;;
85877;SDS011;76393;44.098;3.072;2024-03-02T02:32:46;6.88;;;2.42;;
85877;SDS011;76393;44.098;3.072;2024-03-02T02:35:11;4.97;;;1.85;;
85877;SDS011;76393;44.098;3.072;2024-03-02T02:37:37;8.60;;;1.77;;
85877;SDS011;76393;44.098;3.072;2024-03-02T02:40:04;5.18;;;1.48;;
85877;SDS011;76393;44.098;3.072;2024-03-02T02:42:30;5.70;;;1.58;;
85877;SDS011;76393;44.098;3.072;2024-03-02T02:44:55;6.35;;;1.73;;
85877;SDS011;76393;44.098;3.072;2024-03-02T02:47:21;7.90;;;2.17;;
85877;SDS011;76393;44.098;3.072;2024-03-02T02:49:46;6.38;;;2.10;;
85877;SDS011;76393;44.098;3.072;2024-03-02T02:52:12;6.53;;;1.90;;
85877;SDS011;76393;44.098;3.072;2024-03-02T02:54:37;5.35;;;2.17;;
85877;SDS011;76393;44.098;3.072;2024-03-02T02:57:03;6.10;;;2.22;;
85877;SDS011;76393;44.098;3.072;2024-03-02T02:59:28;9.13;;;3.17;;
85877;SDS011;76393;44.098;3.072;2024-03-02T03:01:54;5.53;;;2.05;;
85877;SDS011;76393;44.098;3.072;2024-03-02T03:04:19;6.93;;;2.42;;
85877;SDS011;76393;44.098;3.072;2024-03-02T03:06:45;8.02;;;2.70;;
85877;SDS011;76393;44.098;3.072;2024-03-02T03:09:11;8.68;;;2.33;;
85877;SDS011;76393;44.098;3.072;2024-03-02T03:11:37;5.45;;;1.90;;
85877;SDS011;76393;44.098;3.072;2024-03-02T03:14:02;5.10;;;1.80;;
85877;SDS011;76393;44.098;3.072;2024-03-02T03:16:28;6.95;;;2.28;;
85877;SDS011;76393;44.098;3.072;2024-03-02T03:18:53;6.93;;;2.20;;
85877;SDS011;76393;44.098;3.072;2024-03-02T03:21:19;4.43;;;1.73;;
85877;SDS011;76393;44.098;3.072;2024-03-02T03:23:44;10.05;;;2.28;;
85877;SDS011;76393;44.098;3.072;2024-03-02T03:26:10;5.28;;;2.20;;
85877;SDS011;76393;44.098;3.072;2024-03-02T03:28:36;4.05;;;1.92;;
85877;SDS011;76393;44.098;3.072;2024-03-02T03:31:01;4.53;;;1.88;;
85877;SDS011;76393;44.098;3.072;2024-03-02T03:33:27;5.80;;;2.22;;
85877;SDS011;76393;44.098;3.072;2024-03-02T03:35:53;4.80;;;1.90;;
85877;SDS011;76393;44.098;3.072;2024-03-02T03:38:18;6.05;;;2.22;;
85877;SDS011;76393;44.098;3.072;2024-03-02T03:40:44;4.80;;;1.95;;
85877;SDS011;76393;44.098;3.072;2024-03-02T03:43:10;6.05;;;2.10;;
85877;SDS011;76393;44.098;3.072;2024-03-02T03:45:35;6.60;;;2.08;;
85877;SDS011;76393;44.098;3.072;2024-03-02T03:48:02;7.28;;;2.25;;
85877;SDS011;76393;44.098;3.072;2024-03-02T03:50:27;6.38;;;2.30;;
85877;SDS011;76393;44.098;3.072;2024-03-02T03:52:53;6.82;;;2.40;;
85877;SDS011;76393;44.098;3.072;2024-03-02T03:55:18;6.15;;;2.20;;
85877;SDS011;76393;44.098;3.072;2024-03-02T03:57:44;8.73;;;2.35;;
85877;SDS011;76393;44.098;3.072;2024-03-02T04:00:10;5.18;;;2.15;;
85877;SDS011;76393;44.098;3.072;2024-03-02T04:02:36;6.13;;;2.10;;
85877;SDS011;76393;44.098;3.072;2024-03-02T04:05:02;5.38;;;2.08;;
85877;SDS011;76393;44.098;3.072;2024-03-02T04:07:30;6.78;;;2.03;;
85877;SDS011;76393;44.098;3.072;2024-03-02T04:09:55;7.55;;;2.08;;
85877;SDS011;76393;44.098;3.072;2024-03-02T04:12:21;6.40;;;2.10;;
85877;SDS011;76393;44.098;3.072;2024-03-02T04:14:47;6.07;;;2.20;;
85877;SDS011;76393;44.098;3.072;2024-03-02T04:17:12;5.18;;;1.90;;
85877;SDS011;76393;44.098;3.072;2024-03-02T04:19:38;7.72;;;2.78;;
85877;SDS011;76393;44.098;3.072;2024-03-02T04:22:04;5.88;;;2.08;;
85877;SDS011;76393;44.098;3.072;2024-03-02T04:24:29;10.45;;;2.83;;
85877;SDS011;76393;44.098;3.072;2024-03-02T04:26:55;6.15;;;2.80;;
85877;SDS011;76393;44.098;3.072;2024-03-02T04:29:21;5.13;;;2.15;;
85877;SDS011;76393;44.098;3.072;2024-03-02T04:31:46;5.03;;;2.50;;
85877;SDS011;76393;44.098;3.072;2024-03-02T04:34:12;8.25;;;2.72;;
85877;SDS011;76393;44.098;3.072;2024-03-02T04:36:37;5.45;;;2.20;;
85877;SDS011;76393;44.098;3.072;2024-03-02T04:39:03;7.72;;;2.63;;
85877;SDS011;76393;44.098;3.072;2024-03-02T04:41:28;7.57;;;2.50;;
85877;SDS011;76393;44.098;3.072;2024-03-02T04:43:54;6.68;;;2.65;;
85877;SDS011;76393;44.098;3.072;2024-03-02T04:46:19;6.18;;;2.00;;
85877;SDS011;76393;44.098;3.072;2024-03-02T04:48:45;5.25;;;2.08;;
85877;SDS011;76393;44.098;3.072;2024-03-02T04:51:10;6.28;;;2.55;;
85877;SDS011;76393;44.098;3.072;2024-03-02T04:53:36;5.72;;;2.60;;
85877;SDS011;76393;44.098;3.072;2024-03-02T04:56:01;6.05;;;2.17;;
85877;SDS011;76393;44.098;3.072;2024-03-02T04:58:45;6.45;;;2.22;;
85877;SDS011;76393;44.098;3.072;2024-03-02T05:01:11;6.70;;;2.70;;
85877;SDS011;76393;44.098;3.072;2024-03-02T05:03:36;5.28;;;1.95;;
85877;SDS011;76393;44.098;3.072;2024-03-02T05:06:02;4.88;;;1.83;;
85877;SDS011;76393;44.098;3.072;2024-03-02T05:08:28;7.63;;;2.08;;
85877;SDS011;76393;44.098;3.072;2024-03-02T05:10:53;6.43;;;2.20;;
85877;SDS011;76393;44.098;3.072;2024-03-02T05:13:18;5.95;;;1.88;;
85877;SDS011;76393;44.098;3.072;2024-03-02T05:15:46;4.13;;;1.70;;
85877;SDS011;76393;44.098;3.072;2024-03-02T05:18:11;4.32;;;1.80;;
85877;SDS011;76393;44.098;3.072;2024-03-02T05:20:37;5.75;;;2.30;;
85877;SDS011;76393;44.098;3.072;2024-03-02T05:23:02;4.60;;;2.22;;
85877;SDS011;76393;44.098;3.072;2024-03-02T05:25:28;6.50;;;2.17;;
85877;SDS011;76393;44.098;3.072;2024-03-02T05:27:54;5.57;;;1.90;;
85877;SDS011;76393;44.098;3.072;2024-03-02T05:30:19;5.88;;;2.03;;
85877;SDS011;76393;44.098;3.072;2024-03-02T05:32:45;6.10;;;1.98;;
85877;SDS011;76393;44.098;3.072;2024-03-02T05:35:10;6.05;;;1.75;;
85877;SDS011;76393;44.098;3.072;2024-03-02T05:37:37;7.13;;;2.00;;
85877;SDS011;76393;44.098;3.072;2024-03-02T05:40:04;6.65;;;2.10;;
85877;SDS011;76393;44.098;3.072;2024-03-02T05:42:30;4.97;;;2.25;;
85877;SDS011;76393;44.098;3.072;2024-03-02T05:44:56;6.35;;;1.90;;
85877;SDS011;76393;44.098;3.072;2024-03-02T05:47:21;4.85;;;1.90;;
85877;SDS011;76393;44.098;3.072;2024-03-02T05:49:47;3.40;;;1.63;;
85877;SDS011;76393;44.098;3.072;2024-03-02T05:52:12;7.85;;;2.47;;
85877;SDS011;76393;44.098;3.072;2024-03-02T05:54:38;5.63;;;2.00;;
85877;SDS011;76393;44.098;3.072;2024-03-02T05:57:04;5.97;;;2.30;;
85877;SDS011;76393;44.098;3.072;2024-03-02T05:59:42;5.60;;;2.40;;
85877;SDS011;76393;44.098;3.072;2024-03-02T06:02:09;7.30;;;2.42;;
85877;SDS011;76393;44.098;3.072;2024-03-02T06:04:34;6.85;;;2.30;;
85877;SDS011;76393;44.098;3.072;2024-03-02T06:06:59;8.07;;;2.70;;
85877;SDS011;76393;44.098;3.072;2024-03-02T06:09:25;5.35;;;2.45;;
85877;SDS011;76393;44.098;3.072;2024-03-02T06:11:51;7.05;;;2.53;;
85877;SDS011;76393;44.098;3.072;2024-03-02T06:14:17;8.07;;;2.78;;
85877;SDS011;76393;44.098;3.072;2024-03-02T06:16:42;8.65;;;3.33;;
85877;SDS011;76393;44.098;3.072;2024-03-02T06:19:08;10.50;;;3.67;;
85877;SDS011;76393;44.098;3.072;2024-03-02T06:21:33;7.05;;;2.33;;
85877;SDS011;76393;44.098;3.072;2024-03-02T06:23:58;7.53;;;3.10;;
85877;SDS011;76393;44.098;3.072;2024-03-02T06:26:24;7.72;;;2.88;;
85877;SDS011;76393;44.098;3.072;2024-03-02T06:28:50;7.95;;;3.08;;
85877;SDS011;76393;44.098;3.072;2024-03-02T06:31:19;9.57;;;3.03;;
85877;SDS011;76393;44.098;3.072;2024-03-02T06:33:44;7.35;;;2.65;;
85877;SDS011;76393;44.098;3.072;2024-03-02T06:36:09;6.53;;;2.70;;
85877;SDS011;76393;44.098;3.072;2024-03-02T06:38:37;7.90;;;2.70;;
85877;SDS011;76393;44.098;3.072;2024-03-02T06:41:02;5.40;;;2.38;;
85877;SDS011;76393;44.098;3.072;2024-03-02T06:43:28;5.47;;;2.65;;
85877;SDS011;76393;44.098;3.072;2024-03-02T06:45:55;8.40;;;2.50;;
85877;SDS011;76393;44.098;3.072;2024-03-02T06:48:21;8.48;;;2.75;;
85877;SDS011;76393;44.098;3.072;2024-03-02T06:50:49;8.00;;;2.35;;
85877;SDS011;76393;44.098;3.072;2024-03-02T06:53:15;8.65;;;2.80;;
85877;SDS011;76393;44.098;3.072;2024-03-02T06:55:44;4.80;;;2.35;;
85877;SDS011;76393;44.098;3.072;2024-03-02T06:58:14;5.95;;;2.63;;
85877;SDS011;76393;44.098;3.072;2024-03-02T07:00:42;6.53;;;2.47;;
85877;SDS011;76393;44.098;3.072;2024-03-02T07:03:09;5.30;;;2.22;;
85877;SDS011;76393;44.098;3.072;2024-03-02T07:05:34;5.38;;;2.22;;
85877;SDS011;76393;44.098;3.072;2024-03-02T07:08:00;5.65;;;2.13;;
85877;SDS011;76393;44.098;3.072;2024-03-02T07:10:26;6.28;;;2.00;;
85877;SDS011;76393;44.098;3.072;2024-03-02T07:12:52;6.50;;;1.95;;
85877;SDS011;76393;44.098;3.072;2024-03-02T07:15:17;5.85;;;2.33;;
85877;SDS011;76393;44.098;3.072;2024-03-02T07:18:02;6.85;;;2.08;;
85877;SDS011;76393;44.098;3.072;2024-03-02T07:20:29;5.70;;;1.73;;
85877;SDS011;76393;44.098;3.072;2024-03-02T07:22:54;4.18;;;1.70;;
85877;SDS011;76393;44.098;3.072;2024-03-02T07:25:20;4.57;;;1.75;;
85877;SDS011;76393;44.098;3.072;2024-03-02T07:27:45;5.07;;;2.03;;
85877;SDS011;76393;44.098;3.072;2024-03-02T07:30:13;5.68;;;2.00;;
85877;SDS011;76393;44.098;3.072;2024-03-02T07:32:41;8.55;;;2.15;;
85877;SDS011;76393;44.098;3.072;2024-03-02T07:35:11;6.65;;;2.15;;
85877;SDS011;76393;44.098;3.072;2024-03-02T07:37:40;4.70;;;2.15;;
85877;SDS011;76393;44.098;3.072;2024-03-02T07:40:06;6.72;;;2.53;;
85877;SDS011;76393;44.098;3.072;2024-03-02T07:42:35;8.05;;;2.70;;
85877;SDS011;76393;44.098;3.072;2024-03-02T07:45:00;6.72;;;3.08;;
85877;SDS011;76393;44.098;3.072;2024-03-02T07:47:26;7.90;;;2.20;;
85877;SDS011;76393;44.098;3.072;2024-03-02T07:49:51;7.07;;;2.03;;
85877;SDS011;76393;44.098;3.072;2024-03-02T07:52:17;4.53;;;2.00;;
85877;SDS011;76393;44.098;3.072;2024-03-02T07:54:42;5.63;;;1.75;;
85877;SDS011;76393;44.098;3.072;2024-03-02T07:57:08;5.43;;;1.60;;
85877;SDS011;76393;44.098;3.072;2024-03-02T07:59:33;3.50;;;1.13;;
85877;SDS011;76393;44.098;3.072;2024-03-02T08:01:59;3.47;;;1.00;;
85877;SDS011;76393;44.098;3.072;2024-03-02T08:04:26;7.20;;;1.10;;
85877;SDS011;76393;44.098;3.072;2024-03-02T08:06:51;3.83;;;0.95;;
85877;SDS011;76393;44.098;3.072;2024-03-02T08:09:17;4.82;;;1.00;;
85877;SDS011;76393;44.098;3.072;2024-03-02T08:11:45;4.03;;;0.85;;
85877;SDS011;76393;44.098;3.072;2024-03-02T08:14:12;5.47;;;0.60;;
85877;SDS011;76393;44.098;3.072;2024-03-02T08:16:38;5.60;;;1.30;;
85877;SDS011;76393;44.098;3.072;2024-03-02T08:19:03;5.15;;;1.08;;
85877;SDS011;76393;44.098;3.072;2024-03-02T08:21:29;4.50;;;1.30;;
85877;SDS011;76393;44.098;3.072;2024-03-02T08:23:56;4.40;;;1.23;;
85877;SDS011;76393;44.098;3.072;2024-03-02T08:26:23;4.60;;;1.10;;
85877;SDS011;76393;44.098;3.072;2024-03-02T08:28:48;3.80;;;1.10;;
85877;SDS011;76393;44.098;3.072;2024-03-02T08:31:14;4.47;;;0.95;;
85877;SDS011;76393;44.098;3.072;2024-03-02T08:33:39;5.00;;;1.00;;
85877;SDS011;76393;44.098;3.072;2024-03-02T08:36:06;9.07;;;1.67;;
85877;SDS011;76393;44.098;3.072;2024-03-02T08:38:31;3.28;;;1.10;;
85877;SDS011;76393;44.098;3.072;2024-03-02T08:40:57;5.40;;;1.08;;
85877;SDS011;76393;44.098;3.072;2024-03-02T08:43:22;4.68;;;1.00;;
85877;SDS011;76393;44.098;3.072;2024-03-02T08:45:48;5.05;;;0.90;;
85877;SDS011;76393;44.098;3.072;2024-03-02T08:48:14;3.85;;;0.82;;
85877;SDS011;76393;44.098;3.072;2024-03-02T08:50:40;4.53;;;0.95;;
85877;SDS011;76393;44.098;3.072;2024-03-02T08:53:05;4.70;;;0.90;;
85877;SDS011;76393;44.098;3.072;2024-03-02T08:55:31;5.30;;;0.80;;
85877;SDS011;76393;44.098;3.072;2024-03-02T08:57:56;5.50;;;1.30;;
85877;SDS011;76393;44.098;3.072;2024-03-02T09:00:22;4.88;;;0.88;;
85877;SDS011;76393;44.098;3.072;2024-03-02T09:02:48;3.92;;;1.20;;
85877;SDS011;76393;44.098;3.072;2024-03-02T09:05:14;6.88;;;1.00;;
85877;SDS011;76393;44.098;3.072;2024-03-02T09:07:40;2.50;;;0.80;;
85877;SDS011;76393;44.098;3.072;2024-03-02T09:10:06;3.22;;;0.70;;
85877;SDS011;76393;44.098;3.072;2024-03-02T09:12:32;3.38;;;0.90;;
85877;SDS011;76393;44.098;3.072;2024-03-02T09:14:58;4.15;;;0.70;;
85877;SDS011;76393;44.098;3.072;2024-03-02T09:17:25;6.43;;;0.88;;
85877;SDS011;76393;44.098;3.072;2024-03-02T09:19:50;4.85;;;0.90;;
85877;SDS011;76393;44.098;3.072;2024-03-02T09:22:22;3.45;;;0.60;;
85877;SDS011;76393;44.098;3.072;2024-03-02T09:24:48;5.85;;;1.00;;
85877;SDS011;76393;44.098;3.072;2024-03-02T09:27:13;7.05;;;0.80;;
85877;SDS011;76393;44.098;3.072;2024-03-02T09:29:39;7.07;;;1.30;;
85877;SDS011;76393;44.098;3.072;2024-03-02T09:32:05;6.80;;;1.08;;
85877;SDS011;76393;44.098;3.072;2024-03-02T09:34:31;3.72;;;0.43;;
85877;SDS011;76393;44.098;3.072;2024-03-02T09:36:57;3.28;;;0.95;;
85877;SDS011;76393;44.098;3.072;2024-03-02T09:39:23;3.72;;;0.70;;
85877;SDS011;76393;44.098;3.072;2024-03-02T09:41:50;4.43;;;0.80;;
85877;SDS011;76393;44.098;3.072;2024-03-02T09:44:16;3.20;;;0.88;;
85877;SDS011;76393;44.098;3.072;2024-03-02T09:46:41;3.33;;;0.57;;
85877;SDS011;76393;44.098;3.072;2024-03-02T09:49:09;3.47;;;0.70;;
85877;SDS011;76393;44.098;3.072;2024-03-02T09:51:36;5.93;;;1.30;;
85877;SDS011;76393;44.098;3.072;2024-03-02T09:54:02;5.20;;;0.75;;
85877;SDS011;76393;44.098;3.072;2024-03-02T09:56:28;4.95;;;0.80;;
85877;SDS011;76393;44.098;3.072;2024-03-02T09:58:53;7.43;;;0.90;;
85877;SDS011;76393;44.098;3.072;2024-03-02T10:01:22;3.58;;;1.25;;
85877;SDS011;76393;44.098;3.072;2024-03-02T10:03:47;3.20;;;0.80;;
85877;SDS011;76393;44.098;3.072;2024-03-02T10:06:23;3.80;;;0.55;;
85877;SDS011;76393;44.098;3.072;2024-03-02T10:08:50;5.28;;;0.88;;
85877;SDS011;76393;44.098;3.072;2024-03-02T10:11:29;3.53;;;0.80;;
85877;SDS011;76393;44.098;3.072;2024-03-02T10:16:33;4.75;;;0.70;;
85877;SDS011;76393;44.098;3.072;2024-03-02T10:19:14;5.28;;;0.90;;
85877;SDS011;76393;44.098;3.072;2024-03-02T10:21:43;3.63;;;0.73;;
85877;SDS011;76393;44.098;3.072;2024-03-02T10:24:10;3.20;;;0.80;;
85877;SDS011;76393;44.098;3.072;2024-03-02T10:26:35;6.70;;;0.93;;
85877;SDS011;76393;44.098;3.072;2024-03-02T10:29:01;3.78;;;0.70;;
85877;SDS011;76393;44.098;3.072;2024-03-02T10:31:27;5.10;;;1.10;;
85877;SDS011;76393;44.098;3.072;2024-03-02T10:33:57;5.78;;;0.77;;
85877;SDS011;76393;44.098;3.072;2024-03-02T10:36:23;7.78;;;0.90;;
85877;SDS011;76393;44.098;3.072;2024-03-02T10:38:51;8.32;;;1.10;;
85877;SDS011;76393;44.098;3.072;2024-03-02T10:41:22;4.93;;;1.15;;
85877;SDS011;76393;44.098;3.072;2024-03-02T10:43:49;5.05;;;0.82;;
85877;SDS011;76393;44.098;3.072;2024-03-02T10:46:17;3.67;;;0.85;;
85877;SDS011;76393;44.098;3.072;2024-03-02T10:48:44;3.67;;;0.68;;
85877;SDS011;76393;44.098;3.072;2024-03-02T10:51:11;3.42;;;0.60;;
85877;SDS011;76393;44.098;3.072;2024-03-02T10:53:37;4.75;;;0.73;;
85877;SDS011;76393;44.098;3.072;2024-03-02T10:56:02;4.55;;;0.68;;
85877;SDS011;76393;44.098;3.072;2024-03-02T10:58:31;4.63;;;0.77;;
85877;SDS011;76393;44.098;3.072;2024-03-02T11:01:00;3.65;;;0.85;;
85877;SDS011;76393;44.098;3.072;2024-03-02T11:03:27;4.57;;;1.17;;
85877;SDS011;76393;44.098;3.072;2024-03-02T11:05:54;3.90;;;0.95;;
85877;SDS011;76393;44.098;3.072;2024-03-02T11:08:21;3.50;;;0.70;;
85877;SDS011;76393;44.098;3.072;2024-03-02T11:10:51;5.15;;;0.80;;
85877;SDS011;76393;44.098;3.072;2024-03-02T11:13:19;4.47;;;0.98;;
85877;SDS011;76393;44.098;3.072;2024-03-02T11:15:49;4.55;;;0.85;;
85877;SDS011;76393;44.098;3.072;2024-03-02T11:18:18;3.80;;;1.00;;
85877;SDS011;76393;44.098;3.072;2024-03-02T11:20:43;7.30;;;1.20;;
85877;SDS011;76393;44.098;3.072;2024-03-02T11:23:09;6.65;;;0.90;;
85877;SDS011;76393;44.098;3.072;2024-03-02T11:25:35;5.28;;;0.98;;
85877;SDS011;76393;44.098;3.072;2024-03-02T11:28:01;4.75;;;1.00;;
85877;SDS011;76393;44.098;3.072;2024-03-02T11:32:56;5.45;;;1.20;;
85877;SDS011;76393;44.098;3.072;2024-03-02T11:35:23;5.55;;;0.90;;
85877;SDS011;76393;44.098;3.072;2024-03-02T11:37:51;3.67;;;0.77;;
85877;SDS011;76393;44.098;3.072;2024-03-02T11:40:21;6.80;;;0.88;;
85877;SDS011;76393;44.098;3.072;2024-03-02T11:42:47;4.70;;;0.70;;
85877;SDS011;76393;44.098;3.072;2024-03-02T11:45:12;3.47;;;0.80;;
85877;SDS011;76393;44.098;3.072;2024-03-02T11:47:46;6.03;;;1.20;;
85877;SDS011;76393;44.098;3.072;2024-03-02T11:50:12;3.90;;;1.15;;
85877;SDS011;76393;44.098;3.072;2024-03-02T11:52:38;8.38;;;1.40;;
85877;SDS011;76393;44.098;3.072;2024-03-02T11:55:05;4.55;;;0.90;;
85877;SDS011;76393;44.098;3.072;2024-03-02T11:57:34;6.55;;;0.93;;
85877;SDS011;76393;44.098;3.072;2024-03-02T12:00:00;5.47;;;1.13;;
85877;SDS011;76393;44.098;3.072;2024-03-02T12:02:28;6.72;;;1.33;;
85877;SDS011;76393;44.098;3.072;2024-03-02T12:04:54;4.00;;;0.70;;
85877;SDS011;76393;44.098;3.072;2024-03-02T12:07:20;4.72;;;1.20;;
85877;SDS011;76393;44.098;3.072;2024-03-02T12:09:47;5.15;;;1.40;;
85877;SDS011;76393;44.098;3.072;2024-03-02T12:12:13;4.75;;;1.00;;
85877;SDS011;76393;44.098;3.072;2024-03-02T12:14:49;5.30;;;1.10;;
85877;SDS011;76393;44.098;3.072;2024-03-02T12:17:15;4.53;;;1.02;;
85877;SDS011;76393;44.098;3.072;2024-03-02T12:19:41;3.65;;;0.90;;
85877;SDS011;76393;44.098;3.072;2024-03-02T12:22:06;4.28;;;1.00;;
85877;SDS011;76393;44.098;3.072;2024-03-02T12:24:32;7.05;;;1.15;;
85877;SDS011;76393;44.098;3.072;2024-03-02T12:26:57;5.47;;;0.95;;
85877;SDS011;76393;44.098;3.072;2024-03-02T12:29:26;3.78;;;0.93;;
85877;SDS011;76393;44.098;3.072;2024-03-02T12:31:52;4.75;;;1.05;;
85877;SDS011;76393;44.098;3.072;2024-03-02T12:34:17;4.55;;;0.93;;
85877;SDS011;76393;44.098;3.072;2024-03-02T12:36:43;3.70;;;0.82;;
85877;SDS011;76393;44.098;3.072;2024-03-02T12:39:12;6.20;;;0.80;;
85877;SDS011;76393;44.098;3.072;2024-03-02T12:41:38;2.08;;;0.73;;
85877;SDS011;76393;44.098;3.072;2024-03-02T12:44:04;5.25;;;0.75;;
85877;SDS011;76393;44.098;3.072;2024-03-02T12:46:31;3.58;;;0.77;;
85877;SDS011;76393;44.098;3.072;2024-03-02T12:48:57;3.05;;;0.90;;
85877;SDS011;76393;44.098;3.072;2024-03-02T12:51:24;3.30;;;0.80;;
85877;SDS011;76393;44.098;3.072;2024-03-02T12:53:59;2.50;;;0.60;;
85877;SDS011;76393;44.098;3.072;2024-03-02T12:56:26;5.20;;;1.00;;
85877;SDS011;76393;44.098;3.072;2024-03-02T12:58:55;5.90;;;1.10;;
85877;SDS011;76393;44.098;3.072;2024-03-02T13:01:21;3.85;;;0.73;;
85877;SDS011;76393;44.098;3.072;2024-03-02T13:03:49;3.55;;;0.82;;
85877;SDS011;76393;44.098;3.072;2024-03-02T13:06:16;5.15;;;1.20;;
85877;SDS011;76393;44.098;3.072;2024-03-02T13:08:42;4.22;;;0.80;;
85877;SDS011;76393;44.098;3.072;2024-03-02T13:11:08;3.55;;;0.60;;
85877;SDS011;76393;44.098;3.072;2024-03-02T13:13:34;4.53;;;1.00;;
85877;SDS011;76393;44.098;3.072;2024-03-02T13:16:00;3.92;;;1.00;;
85877;SDS011;76393;44.098;3.072;2024-03-02T13:18:25;3.67;;;0.68;;
85877;SDS011;76393;44.098;3.072;2024-03-02T13:20:51;2.55;;;0.90;;
85877;SDS011;76393;44.098;3.072;2024-03-02T13:23:17;5.05;;;0.85;;
85877;SDS011;76393;44.098;3.072;2024-03-02T13:25:42;5.15;;;0.63;;
85877;SDS011;76393;44.098;3.072;2024-03-02T13:28:08;3.17;;;0.98;;
85877;SDS011;76393;44.098;3.072;2024-03-02T13:30:34;3.65;;;0.90;;
85877;SDS011;76393;44.098;3.072;2024-03-02T13:32:59;2.47;;;0.80;;
85877;SDS011;76393;44.098;3.072;2024-03-02T13:35:25;3.05;;;1.50;;
85877;SDS011;76393;44.098;3.072;2024-03-02T13:37:51;3.22;;;0.80;;
85877;SDS011;76393;44.098;3.072;2024-03-02T13:40:16;4.68;;;0.60;;
85877;SDS011;76393;44.098;3.072;2024-03-02T13:42:48;1.42;;;0.40;;
85877;SDS011;76393;44.098;3.072;2024-03-02T13:45:14;4.18;;;0.85;;
85877;SDS011;76393;44.098;3.072;2024-03-02T13:47:41;3.88;;;1.05;;
85877;SDS011;76393;44.098;3.072;2024-03-02T13:50:07;5.05;;;1.00;;
85877;SDS011;76393;44.098;3.072;2024-03-02T13:52:32;4.47;;;0.60;;
85877;SDS011;76393;44.098;3.072;2024-03-02T13:54:58;2.45;;;0.63;;
85877;SDS011;76393;44.098;3.072;2024-03-02T13:57:24;4.22;;;0.80;;
85877;SDS011;76393;44.098;3.072;2024-03-02T13:59:49;3.38;;;0.85;;
85877;SDS011;76393;44.098;3.072;2024-03-02T14:02:16;4.50;;;0.57;;
85877;SDS011;76393;44.098;3.072;2024-03-02T14:04:42;3.17;;;0.63;;
85877;SDS011;76393;44.098;3.072;2024-03-02T14:07:08;2.72;;;0.90;;
85877;SDS011;76393;44.098;3.072;2024-03-02T14:09:33;4.00;;;0.70;;
85877;SDS011;76393;44.098;3.072;2024-03-02T14:11:59;3.75;;;0.80;;
85877;SDS011;76393;44.098;3.072;2024-03-02T14:14:27;2.58;;;0.60;;
85877;SDS011;76393;44.098;3.072;2024-03-02T14:16:56;1.95;;;0.70;;
85877;SDS011;76393;44.098;3.072;2024-03-02T14:19:25;3.70;;;0.60;;
85877;SDS011;76393;44.098;3.072;2024-03-02T14:21:51;2.88;;;0.60;;
85877;SDS011;76393;44.098;3.072;2024-03-02T14:24:16;3.10;;;0.52;;
85877;SDS011;76393;44.098;3.072;2024-03-02T14:26:42;3.40;;;0.63;;
85877;SDS011;76393;44.098;3.072;2024-03-02T14:29:08;4.72;;;0.77;;
85877;SDS011;76393;44.098;3.072;2024-03-02T14:31:33;3.08;;;0.73;;
85877;SDS011;76393;44.098;3.072;2024-03-02T14:33:59;2.53;;;0.77;;
85877;SDS011;76393;44.098;3.072;2024-03-02T14:36:25;3.03;;;0.80;;
85877;SDS011;76393;44.098;3.072;2024-03-02T14:38:52;2.88;;;0.65;;
85877;SDS011;76393;44.098;3.072;2024-03-02T14:41:19;5.68;;;1.30;;
85877;SDS011;76393;44.098;3.072;2024-03-02T14:43:44;5.10;;;0.77;;
85877;SDS011;76393;44.098;3.072;2024-03-02T14:46:09;8.38;;;1.13;;
85877;SDS011;76393;44.098;3.072;2024-03-02T14:48:35;5.00;;;1.20;;
85877;SDS011;76393;44.098;3.072;2024-03-02T14:51:01;4.90;;;0.82;;
85877;SDS011;76393;44.098;3.072;2024-03-02T14:53:27;6.00;;;1.73;;